CHICAGO O'HARE INTL

KORD (ORD)
Chicago, Illinois
Towered

Vatsim Metar:
KORD 210951Z 27007G16KT 10SM OVC015 09/06 A3007 RMK AO2 SLP185 T00940061 $

No ATC Online

Traffic

Inbound:
Ident
Type
Name
ETA
Phase
DLH430
H/A359/L
Prince Anthony KJFK
12:57 Z
Cruse
LOT1
H/B762/L
Piotr B EPGD
15:22 Z
Cruse

Outbound:
Ident
Type
Name
Destination
Phase
DLH431
H/B748/L
Daan Broekhuizen EHAM
EDDF
Climb